Time;durP1;ratioP1;P1;durP2;ratioP2;P2;SDS_P1;SDS_P2;PMS_P1;PMS_P2;Temp;Humidity;BMP_temperature;BMP_pressure;BME280_temperature;BME280_humidity;BME280_pressure;Samples;Min_cycle;Max_cycle;Signal;HPM_P1;HPM_P2
2023/01/21 00:01:11;;;;;;;44.72;22.42;;;;;;;-2.84;100.00;101852.44;4923118;28;20505;-82
2023/01/21 00:03:38;;;;;;;50.20;25.58;;;;;;;-2.88;100.00;101850.47;4938815;28;20053;-82
2023/01/21 00:06:06;;;;;;;51.08;24.70;;;;;;;-2.87;100.00;101848.78;4927841;28;20216;-81
2023/01/21 00:08:32;;;;;;;52.17;24.45;;;;;;;-2.89;100.00;101847.81;4960806;28;20050;-79
2023/01/21 00:11:08;;;;;;;53.25;25.38;;;;;;;-2.92;100.00;101857.84;4938802;28;20054;-80
2023/01/21 00:13:38;;;;;;;51.13;24.05;;;;;;;-2.98;100.00;101863.47;4954928;28;20038;-80
2023/01/21 00:16:09;;;;;;;47.70;23.55;;;;;;;-2.99;100.00;101866.81;4941821;28;20137;-80
2023/01/21 00:18:36;;;;;;;44.63;22.55;;;;;;;-3.06;100.00;101869.78;4941740;28;20469;-80
2023/01/21 00:21:03;;;;;;;47.35;22.48;;;;;;;-3.13;100.00;101876.16;4936261;28;20063;-80
2023/01/21 00:23:30;;;;;;;44.47;22.60;;;;;;;-3.17;100.00;101871.63;4930833;28;20127;-80
2023/01/21 00:26:04;;;;;;;52.35;25.83;;;;;;;-3.19;100.00;101878.31;4930390;28;20482;-80
2023/01/21 00:28:33;;;;;;;47.50;22.08;;;;;;;-3.22;100.00;101880.66;4941849;28;20050;-82
2023/01/21 00:31:02;;;;;;;44.47;22.17;;;;;;;-3.27;100.00;101884.59;4922642;28;20055;-80
2023/01/21 00:33:30;;;;;;;47.72;23.23;;;;;;;-3.24;100.00;101887.38;4914457;28;20074;-81
2023/01/21 00:36:08;;;;;;;51.08;22.90;;;;;;;-3.27;100.00;101882.94;4946630;28;20537;-79
2023/01/21 00:38:37;;;;;;;50.00;23.20;;;;;;;-3.29;100.00;101884.50;4935560;28;20050;-79
2023/01/21 00:41:12;;;;;;;44.97;23.60;;;;;;;-3.25;100.00;101894.16;4944585;28;20039;-81
2023/01/21 00:43:41;;;;;;;51.97;23.90;;;;;;;-3.29;100.00;101896.41;4949937;28;20075;-81
2023/01/21 00:46:08;;;;;;;51.58;25.15;;;;;;;-3.30;100.00;101899.75;4938553;28;20047;-81
2023/01/21 00:48:35;;;;;;;50.15;24.75;;;;;;;-3.29;100.00;101901.53;4937640;28;20054;-82
2023/01/21 00:51:02;;;;;;;45.60;22.27;;;;;;;-3.32;100.00;101900.53;4971487;28;20478;-79
2023/01/21 00:53:33;;;;;;;45.92;24.60;;;;;;;-3.28;100.00;101911.88;4943338;28;20043;-81
2023/01/21 00:56:06;;;;;;;50.00;24.08;;;;;;;-3.26;100.00;101912.88;4957210;28;20497;-80
2023/01/21 00:58:34;;;;;;;47.25;24.05;;;;;;;-3.24;100.00;101913.84;4960677;28;20035;-82
2023/01/21 01:01:22;;;;;;;49.00;24.67;;;;;;;-3.22;100.00;101926.75;4954965;28;20050;-79
2023/01/21 01:03:50;;;;;;;40.75;21.10;;;;;;;-3.21;100.00;101925.97;4951714;28;20051;-81
2023/01/21 01:06:21;;;;;;;41.30;22.00;;;;;;;-3.21;100.00;101925.97;4955896;28;20039;-80
2023/01/21 01:08:49;;;;;;;37.55;21.13;;;;;;;-3.24;100.00;101928.34;4952837;28;20039;-80
2023/01/21 01:11:17;;;;;;;41.85;22.13;;;;;;;-3.27;100.00;101929.03;4943015;28;20039;-81
2023/01/21 01:13:46;;;;;;;48.10;21.85;;;;;;;-3.35;100.00;101931.06;4950493;28;20050;-82
2023/01/21 01:16:15;;;;;;;47.03;21.77;;;;;;;-3.39;100.00;101939.31;4948244;28;20051;-80
2023/01/21 01:18:43;;;;;;;45.83;22.88;;;;;;;-3.40;100.00;101945.22;4934220;28;20043;-82
2023/01/21 01:21:17;;;;;;;46.60;24.52;;;;;;;-3.40;100.00;101952.91;4950334;28;20043;-80
2023/01/21 01:23:44;;;;;;;43.95;21.92;;;;;;;-3.41;100.00;101947.69;4951945;28;20035;-78
2023/01/21 01:26:16;;;;;;;46.78;23.95;;;;;;;-3.21;100.00;101959.28;4960685;28;20054;-79
2023/01/21 01:28:44;;;;;;;45.17;24.23;;;;;;;-2.95;100.00;101953.34;4963863;28;20109;-80
2023/01/21 01:31:18;;;;;;;45.40;25.27;;;;;;;-2.68;100.00;101969.66;4933025;28;20058;-79
2023/01/21 01:33:45;;;;;;;46.80;24.30;;;;;;;-2.48;100.00;101970.09;4962302;28;20149;-79
2023/01/21 01:36:22;;;;;;;48.17;24.02;;;;;;;-2.33;100.00;101972.78;4947181;28;20070;-80
2023/01/21 01:38:49;;;;;;;41.17;21.60;;;;;;;-2.24;100.00;101969.91;4952057;28;20126;-79
2023/01/21 01:41:20;;;;;;;37.90;20.63;;;;;;;-2.20;100.00;101979.59;4950152;28;20050;-80
2023/01/21 01:44:05;;;;;;;37.58;20.35;;;;;;;-2.14;100.00;101987.66;4940363;28;20054;-80
2023/01/21 01:46:34;;;;;;;38.20;21.45;;;;;;;-2.05;100.00;101987.38;4945325;28;20039;-79
2023/01/21 01:49:09;;;;;;;37.40;21.30;;;;;;;-1.98;100.00;101994.69;4952812;28;20079;-82
2023/01/21 01:51:46;;;;;;;41.47;18.55;;;;;;;-1.91;100.00;101999.41;4954025;28;20042;-81
2023/01/21 01:54:20;;;;;;;40.90;19.70;;;;;;;-1.80;100.00;101994.94;4966050;28;20031;-80
2023/01/21 01:56:50;;;;;;;39.85;20.70;;;;;;;-1.74;100.00;102008.16;4964281;28;20053;-81
2023/01/21 01:59:19;;;;;;;37.17;18.52;;;;;;;-1.69;100.00;102009.34;4951605;28;20043;-81
2023/01/21 02:01:46;;;;;;;34.08;19.13;;;;;;;-1.62;100.00;102014.88;4949285;28;20055;-81
2023/01/21 02:04:21;;;;;;;33.83;17.50;;;;;;;-1.59;100.00;102023.66;4917510;28;20411;-79
2023/01/21 02:06:51;;;;;;;35.05;17.20;;;;;;;-1.54;100.00;102022.28;4932392;28;20051;-79
2023/01/21 02:09:18;;;;;;;37.25;18.65;;;;;;;-1.48;100.00;102023.44;4947242;28;20090;-79
2023/01/21 02:11:44;;;;;;;31.58;16.42;;;;;;;-1.48;100.00;102024.31;4947792;28;20061;-80
2023/01/21 02:14:11;;;;;;;35.13;15.88;;;;;;;-1.48;100.00;102029.47;4945274;28;20164;-80
2023/01/21 02:17:05;;;;;;;37.40;18.00;;;;;;;-1.47;100.00;102026.09;4956664;28;20081;-80
2023/01/21 02:19:51;;;;;;;29.83;17.50;;;;;;;-1.45;100.00;102033.91;4934824;28;20108;-81
2023/01/21 02:22:48;;;;;;;28.55;15.02;;;;;;;-1.41;100.00;102038.44;4959191;28;20546;-81
2023/01/21 02:26:03;;;;;;;28.42;16.38;;;;;;;-1.42;100.00;102041.78;4965904;28;20038;-79
2023/01/21 02:29:48;;;;;;;31.10;16.27;;;;;;;-1.39;100.00;102032.59;4937455;28;20473;-79
2023/01/21 02:32:54;;;;;;;25.23;15.00;;;;;;;-1.35;100.00;102049.09;4927594;29;21019;-80
2023/01/21 02:35:33;;;;;;;28.23;14.30;;;;;;;-1.32;100.00;102051.84;4919618;28;20042;-80
2023/01/21 02:38:29;;;;;;;29.77;14.80;;;;;;;-1.30;100.00;102047.69;4944730;28;20035;-79
2023/01/21 02:41:34;;;;;;;35.97;14.90;;;;;;;-1.27;100.00;102053.00;4932840;28;20047;-80
2023/01/21 02:44:21;;;;;;;28.95;14.02;;;;;;;-1.24;100.00;102049.75;4934214;28;20074;-79
2023/01/21 02:46:56;;;;;;;30.38;15.18;;;;;;;-1.18;100.00;102060.41;4949534;28;20047;-81
2023/01/21 02:49:36;;;;;;;31.27;14.23;;;;;;;-1.17;100.00;102062.19;4949842;28;20512;-79
2023/01/21 02:52:03;;;;;;;26.67;14.65;;;;;;;-1.18;100.00;102063.84;4949283;28;20189;-79
2023/01/21 02:54:38;;;;;;;31.42;16.17;;;;;;;-1.20;100.00;102067.13;4944292;28;20031;-79
2023/01/21 02:57:18;;;;;;;30.20;15.55;;;;;;;-1.19;100.00;102064.69;4944605;28;20059;-82
2023/01/21 02:59:49;;;;;;;27.55;13.25;;;;;;;-1.20;100.00;102069.69;4960554;28;20694;-80
2023/01/21 03:02:51;;;;;;;23.75;13.15;;;;;;;-1.19;100.00;102069.81;4943610;28;20073;-79
2023/01/21 03:05:39;;;;;;;23.15;13.05;;;;;;;-1.15;100.00;102068.28;4930023;28;20066;-80
2023/01/21 03:08:14;;;;;;;24.70;14.05;;;;;;;-1.11;100.00;102075.41;4945663;28;20482;-80
2023/01/21 03:10:56;;;;;;;24.25;12.55;;;;;;;-1.08;100.00;102078.16;4949021;28;20051;-79
2023/01/21 03:19:13;;;;;;;25.33;11.65;;;;;;;-0.97;100.00;102076.25;4952561;28;20050;-79
2023/01/21 03:21:40;;;;;;;28.75;15.77;;;;;;;-0.96;100.00;102077.16;4959588;28;20557;-80
2023/01/21 03:24:08;;;;;;;25.95;12.90;;;;;;;-0.97;100.00;102086.53;4929171;28;20043;-81
2023/01/21 03:26:46;;;;;;;27.13;12.57;;;;;;;-0.91;100.00;102088.56;4958345;28;20039;-81
2023/01/21 03:29:21;;;;;;;21.98;13.18;;;;;;;-0.87;100.00;102080.28;4960392;28;20081;-82
2023/01/21 03:31:57;;;;;;;25.45;13.23;;;;;;;-0.85;100.00;102077.00;4961927;28;20101;-81
2023/01/21 03:34:27;;;;;;;28.00;13.63;;;;;;;-0.81;100.00;102085.78;4935170;28;20486;-81
2023/01/21 03:37:01;;;;;;;22.58;13.55;;;;;;;-0.81;100.00;102078.06;4936345;28;20051;-81
2023/01/21 03:39:55;;;;;;;26.13;13.40;;;;;;;-0.77;100.00;102084.28;4948291;28;20799;-80
2023/01/21 03:42:22;;;;;;;25.83;14.67;;;;;;;-0.75;100.00;102086.16;4934629;28;20054;-81
2023/01/21 03:44:49;;;;;;;24.58;13.00;;;;;;;-0.72;100.00;102086.34;4943293;28;20047;-82
2023/01/21 03:47:31;;;;;;;21.23;12.10;;;;;;;-0.69;100.00;102089.09;4946306;28;20054;-81
2023/01/21 03:50:14;;;;;;;24.65;14.00;;;;;;;-0.68;100.00;102083.16;4931969;28;20047;-81
2023/01/21 03:52:43;;;;;;;18.98;11.65;;;;;;;-0.68;100.00;102084.84;4939231;28;20039;-81
2023/01/21 03:55:11;;;;;;;27.20;12.70;;;;;;;-0.66;100.00;102085.81;4946818;28;20070;-81
2023/01/21 03:57:39;;;;;;;29.05;13.45;;;;;;;-0.63;100.00;102085.13;4931658;28;20052;-81
2023/01/21 04:00:09;;;;;;;24.90;13.07;;;;;;;-0.63;100.00;102090.25;4932611;28;20777;-81
2023/01/21 04:02:36;;;;;;;26.38;13.30;;;;;;;-0.62;100.00;102081.75;4945542;28;20146;-82
2023/01/21 04:05:03;;;;;;;21.85;12.20;;;;;;;-0.61;100.00;102081.84;4937680;28;20185;-82
2023/01/21 04:07:30;;;;;;;28.20;13.30;;;;;;;-0.58;100.00;102081.16;4946204;28;20043;-81
2023/01/21 04:09:56;;;;;;;24.08;12.32;;;;;;;-0.55;100.00;102078.75;4962124;28;20043;-81
2023/01/21 04:12:23;;;;;;;21.23;11.38;;;;;;;-0.53;100.00;102085.75;4946866;28;20051;-80
2023/01/21 04:14:50;;;;;;;22.77;11.60;;;;;;;-0.54;100.00;102080.53;4934184;28;20046;-80
2023/01/21 04:17:17;;;;;;;29.05;12.82;;;;;;;-0.54;100.00;102078.81;4949575;28;20068;-81
2023/01/21 04:19:43;;;;;;;24.70;13.15;;;;;;;-0.53;100.00;102087.44;4951249;28;20053;-82
2023/01/21 04:22:10;;;;;;;19.83;12.40;;;;;;;-0.52;100.00;102082.38;4935857;28;20059;-81
2023/01/21 04:24:36;;;;;;;24.35;12.13;;;;;;;-0.47;100.00;102089.50;4967839;28;20042;-80
2023/01/21 04:27:03;;;;;;;27.95;14.18;;;;;;;-0.47;100.00;102082.69;4947904;28;20054;-79
2023/01/21 04:29:30;;;;;;;27.42;13.55;;;;;;;-0.45;100.00;102085.34;4964563;28;20043;-79
2023/01/21 04:31:56;;;;;;;25.88;15.02;;;;;;;-0.48;100.00;102088.63;4957677;28;20047;-79
2023/01/21 04:34:24;;;;;;;27.13;13.80;;;;;;;-0.53;100.00;102092.59;4946384;28;20059;-80
2023/01/21 04:36:51;;;;;;;27.48;14.93;;;;;;;-0.58;100.00;102088.84;4958367;28;20046;-79
2023/01/21 04:39:17;;;;;;;23.13;12.15;;;;;;;-0.59;100.00;102084.50;4948426;28;20047;-80
2023/01/21 04:41:45;;;;;;;26.48;15.65;;;;;;;-0.60;100.00;102093.91;4933385;28;20058;-80
2023/01/21 04:44:12;;;;;;;25.90;13.77;;;;;;;-0.60;100.00;102091.34;4949897;28;20074;-80
2023/01/21 04:46:38;;;;;;;21.92;13.63;;;;;;;-0.58;100.00;102094.88;4943661;28;20058;-79
2023/01/21 04:49:05;;;;;;;26.23;13.13;;;;;;;-0.58;100.00;102102.59;4947731;28;20079;-79
2023/01/21 04:51:35;;;;;;;27.92;13.70;;;;;;;-0.59;100.00;102099.94;4927117;28;20046;-79
2023/01/21 04:54:04;;;;;;;24.58;14.00;;;;;;;-0.62;100.00;102108.34;4960573;28;20035;-80
2023/01/21 04:56:30;;;;;;;24.50;13.13;;;;;;;-0.63;100.00;102113.41;4961144;28;20814;-80
2023/01/21 04:58:57;;;;;;;27.30;13.70;;;;;;;-0.61;100.00;102112.72;4944710;28;20098;-80
2023/01/21 05:01:25;;;;;;;27.33;14.35;;;;;;;-0.61;100.00;102115.28;4959636;28;20043;-80
2023/01/21 05:03:52;;;;;;;23.75;13.93;;;;;;;-0.63;100.00;102109.16;4945725;28;20374;-80
2023/01/21 05:06:19;;;;;;;27.58;13.35;;;;;;;-0.65;100.00;102113.31;4942529;28;20399;-79
2023/01/21 05:08:46;;;;;;;26.67;13.25;;;;;;;-0.67;100.00;102126.06;4948457;28;20043;-81
2023/01/21 05:11:18;;;;;;;25.05;13.02;;;;;;;-0.70;100.00;102125.88;4949105;28;20573;-79
2023/01/21 05:13:45;;;;;;;24.05;13.30;;;;;;;-0.71;100.00;102129.25;4929950;28;20041;-80
2023/01/21 05:16:13;;;;;;;27.15;14.82;;;;;;;-0.69;100.00;102134.50;4927584;28;20054;-80
2023/01/21 05:18:40;;;;;;;27.15;13.68;;;;;;;-0.72;100.00;102134.31;4957752;28;20066;-79
2023/01/21 05:21:08;;;;;;;26.35;15.80;;;;;;;-0.70;100.00;102133.59;4964150;28;20047;-79
2023/01/21 05:23:35;;;;;;;21.88;12.50;;;;;;;-0.68;100.00;102143.97;4960405;28;20048;-79
2023/01/21 05:26:02;;;;;;;28.35;14.63;;;;;;;-0.67;100.00;102146.63;4934103;28;20177;-80
2023/01/21 05:28:29;;;;;;;21.35;12.20;;;;;;;-0.64;100.00;102155.34;4954796;28;20053;-79
2023/01/21 05:31:02;;;;;;;24.92;13.18;;;;;;;-0.65;100.00;102153.56;4951687;28;20050;-79
2023/01/21 05:33:35;;;;;;;27.45;15.27;;;;;;;-0.63;100.00;102150.28;4942365;29;20057;-79
2023/01/21 05:36:03;;;;;;;27.17;14.63;;;;;;;-0.62;100.00;102148.63;4963489;28;20137;-79
2023/01/21 05:38:32;;;;;;;25.70;13.93;;;;;;;-0.64;100.00;102150.22;4933538;29;20090;-82
2023/01/21 05:41:01;;;;;;;29.52;14.23;;;;;;;-0.63;100.00;102139.13;4935198;28;20050;-80
2023/01/21 05:43:30;;;;;;;25.13;14.45;;;;;;;-0.60;100.00;102149.59;4953780;28;20059;-81
2023/01/21 05:45:57;;;;;;;24.58;14.02;;;;;;;-0.59;100.00;102151.38;4935862;28;20054;-80
2023/01/21 05:48:24;;;;;;;21.77;13.27;;;;;;;-0.59;100.00;102152.25;4952388;28;20058;-80
2023/01/21 05:50:53;;;;;;;25.42;13.10;;;;;;;-0.58;100.00;102155.72;4932646;28;20126;-79
2023/01/21 05:53:19;;;;;;;19.23;10.93;;;;;;;-0.57;100.00;102154.94;4934883;28;20094;-79
2023/01/21 05:55:46;;;;;;;25.95;12.25;;;;;;;-0.57;100.00;102157.50;4936951;28;20054;-79
2023/01/21 05:58:13;;;;;;;21.88;14.82;;;;;;;-0.55;100.00;102159.38;4951541;28;20054;-79
2023/01/21 06:00:40;;;;;;;21.02;11.88;;;;;;;-0.56;100.00;102154.13;4937682;28;20043;-79
2023/01/21 06:03:07;;;;;;;23.67;12.68;;;;;;;-0.54;100.00;102162.84;4936006;28;20086;-81
2023/01/21 06:05:33;;;;;;;26.50;13.35;;;;;;;-0.52;100.00;102163.84;4949224;28;20054;-83
2023/01/21 06:08:04;;;;;;;25.10;13.70;;;;;;;-0.53;100.00;102170.63;4965409;28;20047;-81
2023/01/21 06:10:30;;;;;;;21.65;13.40;;;;;;;-0.52;100.00;102176.69;4942496;28;20702;-81
2023/01/21 06:12:57;;;;;;;25.77;12.95;;;;;;;-0.51;100.00;102183.59;4941742;28;20439;-80
2023/01/21 06:15:24;;;;;;;25.77;12.68;;;;;;;-0.47;100.00;102189.81;4968977;28;20705;-80
2023/01/21 06:17:52;;;;;;;22.20;10.43;;;;;;;-0.47;100.00;102187.25;4935384;28;20121;-80
2023/01/21 06:20:19;;;;;;;25.58;11.55;;;;;;;-0.46;100.00;102183.88;4960699;28;20118;-81
2023/01/21 06:22:50;;;;;;;20.63;12.25;;;;;;;-0.45;100.00;102194.25;4960396;28;20066;-81
2023/01/21 06:25:18;;;;;;;20.95;12.40;;;;;;;-0.48;100.00;102193.19;4958203;28;20051;-82
2023/01/21 06:27:46;;;;;;;22.50;14.23;;;;;;;-0.54;100.00;102189.44;4956135;28;20042;-81
2023/01/21 06:30:13;;;;;;;27.15;14.05;;;;;;;-0.56;100.00;102203.00;4957537;28;20039;-80
2023/01/21 06:32:43;;;;;;;22.33;13.25;;;;;;;-0.55;100.00;102202.22;4941469;28;20023;-81
2023/01/21 06:35:10;;;;;;;25.95;14.90;;;;;;;-0.57;100.00;102209.84;4928868;28;20053;-80
2023/01/21 06:37:36;;;;;;;21.35;13.32;;;;;;;-0.59;100.00;102213.97;4931252;28;20590;-81
2023/01/21 06:40:07;;;;;;;23.70;14.35;;;;;;;-0.63;100.00;102222.31;4941527;28;20062;-81
2023/01/21 06:42:34;;;;;;;23.42;14.07;;;;;;;-0.63;100.00;102226.56;4961872;28;20074;-81
2023/01/21 06:45:01;;;;;;;21.45;12.75;;;;;;;-0.67;100.00;102230.63;4958307;28;20067;-82
2023/01/21 06:47:27;;;;;;;20.83;12.50;;;;;;;-0.70;100.00;102235.59;4959658;28;20046;-82
2023/01/21 06:49:54;;;;;;;25.60;14.68;;;;;;;-0.68;100.00;102239.13;4957911;28;20134;-81
2023/01/21 06:52:21;;;;;;;27.90;14.02;;;;;;;-0.72;100.00;102247.47;4954901;28;20069;-81
2023/01/21 06:54:48;;;;;;;29.38;13.70;;;;;;;-0.74;100.00;102247.38;4945439;28;20047;-82
2023/01/21 06:57:15;;;;;;;27.60;14.05;;;;;;;-0.70;100.00;102254.47;4943498;28;20050;-81
2023/01/21 06:59:42;;;;;;;28.27;13.38;;;;;;;-0.66;100.00;102258.13;4932673;28;20553;-81
2023/01/21 07:02:12;;;;;;;28.02;14.00;;;;;;;-0.66;100.00;102255.56;4942589;28;20118;-81
2023/01/21 07:04:39;;;;;;;33.28;16.40;;;;;;;-0.66;100.00;102260.72;4932806;29;20039;-80
2023/01/21 07:07:05;;;;;;;31.13;16.08;;;;;;;-0.67;100.00;102261.50;4965869;28;20039;-80
2023/01/21 07:09:32;;;;;;;31.65;16.05;;;;;;;-0.67;100.00;102257.22;4937114;28;20043;-81
2023/01/21 07:11:58;;;;;;;28.02;15.23;;;;;;;-0.65;100.00;102264.16;4947105;28;20119;-82
2023/01/21 07:14:25;;;;;;;29.73;15.65;;;;;;;-0.65;100.00;102266.72;4925671;28;20039;-81
2023/01/21 07:16:52;;;;;;;29.25;16.50;;;;;;;-0.68;100.00;102267.44;4926446;28;20059;-82
2023/01/21 07:19:19;;;;;;;39.05;18.17;;;;;;;-0.68;100.00;102273.47;4937366;28;20145;-80
2023/01/21 07:21:45;;;;;;;29.85;15.70;;;;;;;-0.71;100.00;102275.84;4947037;28;20078;-80
2023/01/21 07:24:12;;;;;;;31.25;16.77;;;;;;;-0.71;100.00;102280.97;4925342;28;20043;-80
2023/01/21 07:26:40;;;;;;;31.25;15.43;;;;;;;-0.73;100.00;102280.00;4945204;28;21447;-81
2023/01/21 07:29:07;;;;;;;33.78;17.55;;;;;;;-0.73;100.00;102287.72;4950985;28;20043;-81
2023/01/21 07:31:34;;;;;;;39.50;20.35;;;;;;;-0.72;100.00;102286.03;4937272;28;20671;-80
2023/01/21 07:34:01;;;;;;;31.17;16.40;;;;;;;-0.70;100.00;102290.47;4934444;28;20753;-81
2023/01/21 07:36:28;;;;;;;26.88;14.57;;;;;;;-0.72;100.00;102286.03;4950927;28;20035;-83
2023/01/21 07:38:55;;;;;;;27.10;15.40;;;;;;;-0.70;100.00;102294.75;4934045;28;20814;-82
2023/01/21 07:41:22;;;;;;;23.95;15.77;;;;;;;-0.70;100.00;102294.75;4966710;28;20134;-83
2023/01/21 07:43:49;;;;;;;31.60;15.57;;;;;;;-0.69;100.00;102293.97;4948328;28;20801;-82
2023/01/21 07:46:21;;;;;;;30.10;14.73;;;;;;;-0.70;100.00;102292.19;4947465;28;20062;-80
2023/01/21 07:48:52;;;;;;;24.42;13.82;;;;;;;-0.73;100.00;102299.69;4936022;28;20050;-81
2023/01/21 07:51:21;;;;;;;28.38;14.82;;;;;;;-0.73;100.00;102298.00;4949468;28;20075;-83
2023/01/21 07:53:47;;;;;;;31.02;15.43;;;;;;;-0.74;100.00;102297.91;4946792;28;20046;-83
2023/01/21 07:56:15;;;;;;;29.40;14.90;;;;;;;-0.72;100.00;102296.31;4947567;28;20047;-80
2023/01/21 07:58:42;;;;;;;37.70;16.63;;;;;;;-0.69;100.00;102306.81;4948786;28;20053;-81
2023/01/21 08:01:10;;;;;;;28.85;15.07;;;;;;;-0.70;100.00;102305.91;4947219;28;20039;-81
2023/01/21 08:03:38;;;;;;;26.20;12.93;;;;;;;-0.67;100.00;102310.34;4944604;28;20046;-82
2023/01/21 08:06:07;;;;;;;25.70;13.38;;;;;;;-0.66;100.00;102304.44;4944667;28;20477;-82
2023/01/21 08:08:34;;;;;;;21.80;13.18;;;;;;;-0.65;100.00;102311.34;4965283;28;20576;-82
2023/01/21 08:11:00;;;;;;;23.90;13.45;;;;;;;-0.63;100.00;102320.03;4950069;28;20046;-82
2023/01/21 08:13:27;;;;;;;24.83;14.20;;;;;;;-0.62;100.00;102323.53;4960705;28;20394;-82
2023/01/21 08:15:58;;;;;;;26.55;14.85;;;;;;;-0.64;100.00;102323.41;4952078;28;20075;-81
2023/01/21 08:18:25;;;;;;;31.08;14.38;;;;;;;-0.64;100.00;102320.84;4960930;28;20034;-81
2023/01/21 08:20:58;;;;;;;37.83;20.23;;;;;;;-0.61;100.00;102327.84;4948204;28;20042;-83
2023/01/21 08:23:26;;;;;;;30.42;15.50;;;;;;;-0.60;100.00;102330.56;4950775;28;20501;-81
2023/01/21 08:25:59;;;;;;;32.47;16.38;;;;;;;-0.56;100.00;102329.03;4944609;28;20047;-81
2023/01/21 08:28:26;;;;;;;28.27;14.27;;;;;;;-0.54;100.00;102333.50;4935530;28;20051;-83
2023/01/21 08:30:53;;;;;;;26.48;13.73;;;;;;;-0.53;100.00;102340.41;4934993;28;20046;-82
2023/01/21 08:33:20;;;;;;;22.75;12.98;;;;;;;-0.53;100.00;102345.56;4946599;28;20482;-82
2023/01/21 08:35:46;;;;;;;24.65;13.23;;;;;;;-0.53;100.00;102347.25;4943302;28;20737;-83
2023/01/21 08:38:13;;;;;;;31.10;15.68;;;;;;;-0.54;100.00;102353.19;4941674;28;20081;-80
2023/01/21 08:40:42;;;;;;;25.77;13.43;;;;;;;-0.53;100.00;102357.56;4961202;28;20054;-82
2023/01/21 08:43:09;;;;;;;24.48;13.90;;;;;;;-0.53;100.00;102354.97;4947616;28;20098;-80
2023/01/21 08:45:37;;;;;;;26.08;13.32;;;;;;;-0.54;100.00;102354.06;4931136;28;20508;-82
2023/01/21 08:48:05;;;;;;;26.02;13.95;;;;;;;-0.51;100.00;102359.44;4943136;28;20500;-81
2023/01/21 08:50:32;;;;;;;24.77;12.52;;;;;;;-0.48;100.00;102366.44;4944453;28;20047;-84
2023/01/21 08:52:58;;;;;;;25.13;13.38;;;;;;;-0.47;100.00;102365.66;4943877;28;20045;-82
2023/01/21 08:55:26;;;;;;;21.88;11.25;;;;;;;-0.47;100.00;102368.25;4943937;28;20138;-81
2023/01/21 08:57:58;;;;;;;22.23;11.80;;;;;;;-0.47;100.00;102369.91;4930152;28;20466;-82
2023/01/21 09:00:25;;;;;;;24.05;13.50;;;;;;;-0.45;100.00;102374.34;4941702;28;20066;-80
2023/01/21 09:02:52;;;;;;;23.63;12.75;;;;;;;-0.42;100.00;102383.94;4952081;28;20074;-82
2023/01/21 09:05:20;;;;;;;30.40;14.88;;;;;;;-0.40;100.00;102396.13;4944498;28;20039;-80
2023/01/21 09:07:46;;;;;;;23.83;11.57;;;;;;;-0.42;100.00;102395.13;4950588;28;20044;-81
2023/01/21 09:10:59;;;;;;;19.05;11.35;;;;;;;-0.41;100.00;102393.47;4948918;28;20042;-81
2023/01/21 09:13:10;;;;;;;26.90;13.07;;;;;;;-0.37;100.00;102393.72;4947769;28;20509;-80
2023/01/21 09:15:43;;;;;;;22.38;12.82;;;;;;;-0.34;100.00;102395.59;4948613;28;20047;-82
2023/01/21 09:18:11;;;;;;;20.70;13.82;;;;;;;-0.35;100.00;102399.00;4962343;28;20042;-80
2023/01/21 09:20:39;;;;;;;21.95;12.10;;;;;;;-0.39;100.00;102391.84;4947973;28;20059;-79
2023/01/21 09:23:24;;;;;;;24.42;12.98;;;;;;;-0.35;100.00;102399.88;4949746;28;20038;-80
2023/01/21 09:26:03;;;;;;;20.40;12.77;;;;;;;-0.32;100.00;102391.47;4951126;28;20039;-80
2023/01/21 09:28:32;;;;;;;23.35;12.52;;;;;;;-0.30;100.00;102400.19;4966999;28;20058;-79
2023/01/21 09:31:05;;;;;;;27.45;14.43;;;;;;;-0.29;100.00;102401.06;4936803;28;20037;-79
2023/01/21 09:33:36;;;;;;;27.70;14.68;;;;;;;-0.23;100.00;102406.63;4945760;28;20054;-80
2023/01/21 09:36:06;;;;;;;23.38;12.55;;;;;;;-0.19;100.00;102399.16;4931830;29;20039;-80
2023/01/21 09:38:34;;;;;;;22.02;12.98;;;;;;;-0.11;100.00;102396.19;4905814;29;20071;-80
2023/01/21 09:41:26;;;;;;;24.55;12.95;;;;;;;-0.04;100.00;102399.25;4932135;29;20043;-81
2023/01/21 09:44:07;;;;;;;26.92;15.02;;;;;;;0.03;100.00;102390.22;4935747;29;20098;-80
2023/01/21 09:46:46;;;;;;;28.27;14.43;;;;;;;0.11;100.00;102399.31;4934144;29;20036;-80
2023/01/21 09:49:25;;;;;;;29.23;12.68;;;;;;;0.20;100.00;102401.56;4945966;28;20035;-81
2023/01/21 09:52:38;;;;;;;24.83;13.52;;;;;;;0.26;100.00;102408.75;4933944;29;20047;-80
2023/01/21 09:55:19;;;;;;;23.67;13.70;;;;;;;0.28;100.00;102399.47;4935233;29;20421;-80
2023/01/21 09:58:27;;;;;;;29.40;14.38;;;;;;;0.32;100.00;102404.88;4928484;29;20413;-80
2023/01/21 10:01:34;;;;;;;27.83;14.18;;;;;;;0.37;100.00;102418.06;4917707;29;20063;-80
2023/01/21 10:04:30;;;;;;;29.70;13.10;;;;;;;0.37;100.00;102417.19;4937076;29;20070;-82
2023/01/21 10:07:16;;;;;;;26.70;13.35;;;;;;;0.41;100.00;102414.84;4951745;28;20098;-82
2023/01/21 10:10:16;;;;;;;27.02;14.88;;;;;;;0.44;100.00;102416.72;4944456;29;20051;-81
2023/01/21 10:13:21;;;;;;;32.75;16.90;;;;;;;0.45;100.00;102414.25;4951320;28;20105;-83
2023/01/21 10:16:02;;;;;;;34.60;14.93;;;;;;;0.46;100.00;102412.56;4947295;28;20447;-80
2023/01/21 10:18:36;;;;;;;23.90;14.82;;;;;;;0.51;100.00;102418.91;4916226;29;20502;-80
2023/01/21 10:21:24;;;;;;;19.63;11.05;;;;;;;0.55;100.00;102413.13;4932525;29;20043;-82
2023/01/21 10:24:02;;;;;;;34.25;13.15;;;;;;;0.58;100.00;102410.72;4930028;29;20081;-82
2023/01/21 10:26:33;;;;;;;25.27;13.77;;;;;;;0.59;100.00;102403.91;4934850;29;20565;-81
2023/01/21 10:29:00;;;;;;;27.15;14.55;;;;;;;0.61;100.00;102407.44;4927524;29;20054;-79
2023/01/21 10:31:33;;;;;;;24.65;12.77;;;;;;;0.64;100.00;102407.66;4933183;29;20127;-80
2023/01/21 10:34:05;;;;;;;29.00;13.55;;;;;;;0.63;100.00;102404.16;4937159;28;20128;-82
2023/01/21 10:36:49;;;;;;;22.55;12.65;;;;;;;0.69;100.00;102410.50;4948212;28;20039;-81
2023/01/21 10:40:03;;;;;;;25.73;13.48;;;;;;;0.77;99.97;102414.41;4964509;28;20042;-83
2023/01/21 10:42:50;;;;;;;28.20;14.45;;;;;;;0.87;100.00;102408.13;4966125;28;20066;-81
2023/01/21 10:45:44;;;;;;;31.02;14.30;;;;;;;0.88;98.72;102399.59;4932651;28;20170;-80
2023/01/21 10:48:37;;;;;;;27.73;12.98;;;;;;;0.89;98.78;102394.50;4965292;28;20058;-81
2023/01/21 10:51:42;;;;;;;27.98;15.88;;;;;;;0.90;98.05;102403.13;4943335;28;20046;-80
2023/01/21 10:54:35;;;;;;;28.38;14.85;;;;;;;0.86;98.18;102398.59;4952183;28;20182;-80
2023/01/21 10:57:16;;;;;;;28.85;15.10;;;;;;;0.88;97.92;102397.00;4961074;28;20134;-83
2023/01/21 10:59:43;;;;;;;30.63;16.00;;;;;;;0.88;97.78;102391.84;4947289;28;20046;-81
2023/01/21 11:02:18;;;;;;;28.95;15.70;;;;;;;0.91;97.66;102392.03;4957457;28;20055;-85
2023/01/21 11:04:46;;;;;;;27.30;14.57;;;;;;;0.96;97.94;102403.50;4944886;28;20051;-80
2023/01/21 11:07:18;;;;;;;30.33;14.93;;;;;;;1.05;97.56;102395.41;4945560;28;20082;-80
2023/01/21 11:09:48;;;;;;;30.15;15.23;;;;;;;1.12;96.66;102397.53;4929729;28;20051;-81
2023/01/21 11:12:25;;;;;;;30.13;16.20;;;;;;;1.21;96.63;102397.19;4949481;28;20521;-81
2023/01/21 11:14:57;;;;;;;26.88;13.20;;;;;;;1.29;95.54;102393.34;4935323;28;20053;-81
2023/01/21 11:17:37;;;;;;;29.35;12.52;;;;;;;1.34;94.98;102398.78;4964584;28;20046;-81
2023/01/21 11:20:40;;;;;;;28.30;15.55;;;;;;;1.36;94.14;102395.47;4946731;28;20120;-81
2023/01/21 11:23:30;;;;;;;31.33;14.05;;;;;;;1.40;93.92;102404.28;4940225;28;20047;-84
2023/01/21 11:26:16;;;;;;;29.90;13.55;;;;;;;1.35;93.75;102416.03;4978157;28;20149;-83
2023/01/21 11:28:51;;;;;;;25.38;12.63;;;;;;;1.38;94.37;102403.31;4943446;28;20047;-83
2023/01/21 11:31:26;;;;;;;28.45;14.50;;;;;;;1.41;94.09;102400.88;4977308;28;20043;-82
2023/01/21 11:33:56;;;;;;;25.10;12.32;;;;;;;1.41;93.44;102404.38;4959976;28;20089;-80
2023/01/21 11:36:22;;;;;;;27.83;12.98;;;;;;;1.39;93.80;102410.25;4958718;28;20073;-81